sensor_id;sensor_type;location;lat;lon;timestamp;P1;durP1;ratioP1;P2;durP2;ratioP2
6033;SDS011;3045;43.226;27.858;2022-10-31T00:00:06;20.57;;;14.37;;
6033;SDS011;3045;43.226;27.858;2022-10-31T00:02:34;15.57;;;12.77;;
6033;SDS011;3045;43.226;27.858;2022-10-31T00:05:01;20.30;;;13.43;;
6033;SDS011;3045;43.226;27.858;2022-10-31T00:07:28;17.33;;;14.07;;
6033;SDS011;3045;43.226;27.858;2022-10-31T00:09:56;21.60;;;13.97;;
6033;SDS011;3045;43.226;27.858;2022-10-31T00:12:23;15.03;;;13.50;;
6033;SDS011;3045;43.226;27.858;2022-10-31T00:14:50;14.43;;;13.03;;
6033;SDS011;3045;43.226;27.858;2022-10-31T00:17:17;15.07;;;13.57;;
6033;SDS011;3045;43.226;27.858;2022-10-31T00:19:46;14.30;;;12.80;;
6033;SDS011;3045;43.226;27.858;2022-10-31T00:22:12;17.53;;;12.07;;
6033;SDS011;3045;43.226;27.858;2022-10-31T00:24:39;15.90;;;13.03;;
6033;SDS011;3045;43.226;27.858;2022-10-31T00:27:08;14.53;;;12.53;;
6033;SDS011;3045;43.226;27.858;2022-10-31T00:29:34;12.63;;;11.63;;
6033;SDS011;3045;43.226;27.858;2022-10-31T00:32:01;13.03;;;12.37;;
6033;SDS011;3045;43.226;27.858;2022-10-31T00:34:28;13.07;;;11.97;;
6033;SDS011;3045;43.226;27.858;2022-10-31T00:36:55;12.77;;;11.60;;
6033;SDS011;3045;43.226;27.858;2022-10-31T00:39:22;12.53;;;11.63;;
6033;SDS011;3045;43.226;27.858;2022-10-31T00:41:49;15.57;;;11.93;;
6033;SDS011;3045;43.226;27.858;2022-10-31T00:44:17;14.87;;;11.93;;
6033;SDS011;3045;43.226;27.858;2022-10-31T00:46:44;12.73;;;11.60;;
6033;SDS011;3045;43.226;27.858;2022-10-31T00:49:11;12.87;;;11.27;;
6033;SDS011;3045;43.226;27.858;2022-10-31T00:51:38;12.20;;;11.10;;
6033;SDS011;3045;43.226;27.858;2022-10-31T00:54:05;13.77;;;12.67;;
6033;SDS011;3045;43.226;27.858;2022-10-31T00:56:32;13.80;;;12.50;;
6033;SDS011;3045;43.226;27.858;2022-10-31T00:58:58;12.83;;;11.60;;
6033;SDS011;3045;43.226;27.858;2022-10-31T01:01:27;13.37;;;12.00;;
6033;SDS011;3045;43.226;27.858;2022-10-31T01:03:54;15.77;;;12.17;;
6033;SDS011;3045;43.226;27.858;2022-10-31T01:06:21;15.37;;;11.13;;
6033;SDS011;3045;43.226;27.858;2022-10-31T01:08:48;11.67;;;10.70;;
6033;SDS011;3045;43.226;27.858;2022-10-31T01:11:15;13.23;;;12.23;;
6033;SDS011;3045;43.226;27.858;2022-10-31T01:13:44;13.00;;;11.87;;
6033;SDS011;3045;43.226;27.858;2022-10-31T01:16:11;13.17;;;11.57;;
6033;SDS011;3045;43.226;27.858;2022-10-31T01:18:41;14.20;;;12.13;;
6033;SDS011;3045;43.226;27.858;2022-10-31T01:21:09;14.03;;;12.17;;
6033;SDS011;3045;43.226;27.858;2022-10-31T01:23:37;13.47;;;12.20;;
6033;SDS011;3045;43.226;27.858;2022-10-31T01:26:06;12.10;;;11.17;;
6033;SDS011;3045;43.226;27.858;2022-10-31T01:28:34;13.93;;;11.90;;
6033;SDS011;3045;43.226;27.858;2022-10-31T01:31:02;13.67;;;12.70;;
6033;SDS011;3045;43.226;27.858;2022-10-31T01:33:31;13.70;;;12.33;;
6033;SDS011;3045;43.226;27.858;2022-10-31T01:35:59;15.27;;;13.20;;
6033;SDS011;3045;43.226;27.858;2022-10-31T01:38:27;13.40;;;12.20;;
6033;SDS011;3045;43.226;27.858;2022-10-31T01:40:54;14.93;;;12.00;;
6033;SDS011;3045;43.226;27.858;2022-10-31T01:43:20;16.53;;;14.17;;
6033;SDS011;3045;43.226;27.858;2022-10-31T01:45:49;14.20;;;12.77;;
6033;SDS011;3045;43.226;27.858;2022-10-31T01:48:29;21.00;;;13.50;;
6033;SDS011;3045;43.226;27.858;2022-10-31T01:50:56;14.13;;;13.13;;
6033;SDS011;3045;43.226;27.858;2022-10-31T01:53:24;14.30;;;12.97;;
6033;SDS011;3045;43.226;27.858;2022-10-31T01:55:51;14.13;;;13.00;;
6033;SDS011;3045;43.226;27.858;2022-10-31T01:58:20;14.73;;;13.37;;
6033;SDS011;3045;43.226;27.858;2022-10-31T02:00:52;15.47;;;13.23;;
6033;SDS011;3045;43.226;27.858;2022-10-31T02:03:21;14.43;;;13.03;;
6033;SDS011;3045;43.226;27.858;2022-10-31T02:05:50;19.03;;;14.90;;
6033;SDS011;3045;43.226;27.858;2022-10-31T02:08:20;21.67;;;14.13;;
6033;SDS011;3045;43.226;27.858;2022-10-31T02:10:53;15.63;;;14.23;;
6033;SDS011;3045;43.226;27.858;2022-10-31T02:13:20;17.47;;;15.57;;
6033;SDS011;3045;43.226;27.858;2022-10-31T02:15:51;19.70;;;16.93;;
6033;SDS011;3045;43.226;27.858;2022-10-31T02:18:19;25.53;;;16.00;;
6033;SDS011;3045;43.226;27.858;2022-10-31T02:20:49;18.83;;;15.40;;
6033;SDS011;3045;43.226;27.858;2022-10-31T02:23:45;24.73;;;15.80;;
6033;SDS011;3045;43.226;27.858;2022-10-31T02:26:35;23.37;;;16.17;;
6033;SDS011;3045;43.226;27.858;2022-10-31T02:29:19;22.00;;;15.13;;
6033;SDS011;3045;43.226;27.858;2022-10-31T02:32:02;19.67;;;17.07;;
6033;SDS011;3045;43.226;27.858;2022-10-31T02:34:35;30.17;;;17.77;;
6033;SDS011;3045;43.226;27.858;2022-10-31T02:37:10;22.77;;;16.53;;
6033;SDS011;3045;43.226;27.858;2022-10-31T02:39:42;21.27;;;17.40;;
6033;SDS011;3045;43.226;27.858;2022-10-31T02:42:20;31.77;;;17.00;;
6033;SDS011;3045;43.226;27.858;2022-10-31T02:44:58;31.20;;;17.87;;
6033;SDS011;3045;43.226;27.858;2022-10-31T02:47:34;20.93;;;17.10;;
6033;SDS011;3045;43.226;27.858;2022-10-31T02:50:04;25.80;;;17.57;;
6033;SDS011;3045;43.226;27.858;2022-10-31T02:52:35;24.60;;;19.37;;
6033;SDS011;3045;43.226;27.858;2022-10-31T02:55:09;21.80;;;17.03;;
6033;SDS011;3045;43.226;27.858;2022-10-31T02:57:39;32.50;;;17.03;;
6033;SDS011;3045;43.226;27.858;2022-10-31T03:00:08;19.53;;;17.53;;
6033;SDS011;3045;43.226;27.858;2022-10-31T03:02:53;31.33;;;18.70;;
6033;SDS011;3045;43.226;27.858;2022-10-31T03:05:29;25.33;;;17.50;;
6033;SDS011;3045;43.226;27.858;2022-10-31T03:08:08;21.60;;;18.87;;
6033;SDS011;3045;43.226;27.858;2022-10-31T03:10:41;23.53;;;17.67;;
6033;SDS011;3045;43.226;27.858;2022-10-31T03:13:16;27.13;;;19.27;;
6033;SDS011;3045;43.226;27.858;2022-10-31T03:15:50;19.87;;;17.73;;
6033;SDS011;3045;43.226;27.858;2022-10-31T03:18:23;28.33;;;19.00;;
6033;SDS011;3045;43.226;27.858;2022-10-31T03:20:56;23.13;;;17.97;;
6033;SDS011;3045;43.226;27.858;2022-10-31T03:23:27;24.73;;;17.47;;
6033;SDS011;3045;43.226;27.858;2022-10-31T03:25:57;22.63;;;18.53;;
6033;SDS011;3045;43.226;27.858;2022-10-31T03:28:30;19.63;;;17.63;;
6033;SDS011;3045;43.226;27.858;2022-10-31T03:31:02;22.37;;;18.43;;
6033;SDS011;3045;43.226;27.858;2022-10-31T03:33:32;22.47;;;18.77;;
6033;SDS011;3045;43.226;27.858;2022-10-31T03:36:03;21.23;;;18.13;;
6033;SDS011;3045;43.226;27.858;2022-10-31T03:38:32;22.53;;;17.43;;
6033;SDS011;3045;43.226;27.858;2022-10-31T03:41:03;25.60;;;18.67;;
6033;SDS011;3045;43.226;27.858;2022-10-31T03:43:33;21.27;;;17.03;;
6033;SDS011;3045;43.226;27.858;2022-10-31T03:46:06;18.67;;;16.97;;
6033;SDS011;3045;43.226;27.858;2022-10-31T03:48:35;30.37;;;17.83;;
6033;SDS011;3045;43.226;27.858;2022-10-31T03:51:04;24.63;;;18.03;;
6033;SDS011;3045;43.226;27.858;2022-10-31T03:53:37;18.60;;;16.13;;
6033;SDS011;3045;43.226;27.858;2022-10-31T03:56:11;21.47;;;17.43;;
6033;SDS011;3045;43.226;27.858;2022-10-31T03:58:46;19.37;;;17.27;;
6033;SDS011;3045;43.226;27.858;2022-10-31T04:01:20;20.13;;;16.67;;
6033;SDS011;3045;43.226;27.858;2022-10-31T04:03:50;22.40;;;18.07;;
6033;SDS011;3045;43.226;27.858;2022-10-31T04:06:17;28.27;;;19.63;;
6033;SDS011;3045;43.226;27.858;2022-10-31T04:08:48;25.23;;;17.67;;
6033;SDS011;3045;43.226;27.858;2022-10-31T04:11:18;27.73;;;19.80;;
6033;SDS011;3045;43.226;27.858;2022-10-31T04:13:48;18.67;;;16.10;;
6033;SDS011;3045;43.226;27.858;2022-10-31T04:16:16;22.90;;;18.20;;
6033;SDS011;3045;43.226;27.858;2022-10-31T04:18:44;34.60;;;24.63;;
6033;SDS011;3045;43.226;27.858;2022-10-31T04:21:12;33.67;;;25.37;;
6033;SDS011;3045;43.226;27.858;2022-10-31T04:23:39;26.83;;;19.20;;
6033;SDS011;3045;43.226;27.858;2022-10-31T04:26:06;33.33;;;19.50;;
6033;SDS011;3045;43.226;27.858;2022-10-31T04:28:34;33.87;;;20.17;;
6033;SDS011;3045;43.226;27.858;2022-10-31T04:31:01;23.23;;;19.73;;
6033;SDS011;3045;43.226;27.858;2022-10-31T04:33:28;35.27;;;22.10;;
6033;SDS011;3045;43.226;27.858;2022-10-31T04:35:55;34.87;;;24.40;;
6033;SDS011;3045;43.226;27.858;2022-10-31T04:38:23;41.47;;;26.90;;
6033;SDS011;3045;43.226;27.858;2022-10-31T04:40:50;64.27;;;32.80;;
6033;SDS011;3045;43.226;27.858;2022-10-31T04:43:17;65.07;;;38.37;;
6033;SDS011;3045;43.226;27.858;2022-10-31T04:45:44;72.40;;;38.43;;
6033;SDS011;3045;43.226;27.858;2022-10-31T04:48:11;59.40;;;35.80;;
6033;SDS011;3045;43.226;27.858;2022-10-31T04:50:38;65.57;;;37.03;;
6033;SDS011;3045;43.226;27.858;2022-10-31T04:53:05;68.23;;;38.53;;
6033;SDS011;3045;43.226;27.858;2022-10-31T04:55:33;65.93;;;40.10;;
6033;SDS011;3045;43.226;27.858;2022-10-31T04:58:01;70.10;;;39.70;;
6033;SDS011;3045;43.226;27.858;2022-10-31T05:00:28;75.33;;;41.93;;
6033;SDS011;3045;43.226;27.858;2022-10-31T05:02:56;75.23;;;41.00;;
6033;SDS011;3045;43.226;27.858;2022-10-31T05:05:25;70.07;;;40.13;;
6033;SDS011;3045;43.226;27.858;2022-10-31T05:07:52;81.60;;;40.23;;
6033;SDS011;3045;43.226;27.858;2022-10-31T05:10:20;80.43;;;39.80;;
6033;SDS011;3045;43.226;27.858;2022-10-31T05:12:51;78.47;;;41.17;;
6033;SDS011;3045;43.226;27.858;2022-10-31T05:15:19;91.27;;;41.03;;
6033;SDS011;3045;43.226;27.858;2022-10-31T05:17:47;83.50;;;40.40;;
6033;SDS011;3045;43.226;27.858;2022-10-31T05:20:15;72.53;;;39.00;;
6033;SDS011;3045;43.226;27.858;2022-10-31T05:22:43;62.53;;;37.97;;
6033;SDS011;3045;43.226;27.858;2022-10-31T05:25:10;60.80;;;38.17;;
6033;SDS011;3045;43.226;27.858;2022-10-31T05:27:38;71.27;;;36.60;;
6033;SDS011;3045;43.226;27.858;2022-10-31T05:30:08;66.40;;;38.43;;
6033;SDS011;3045;43.226;27.858;2022-10-31T05:32:38;78.60;;;37.87;;
6033;SDS011;3045;43.226;27.858;2022-10-31T05:35:05;80.57;;;40.23;;
6033;SDS011;3045;43.226;27.858;2022-10-31T05:37:34;70.43;;;37.30;;
6033;SDS011;3045;43.226;27.858;2022-10-31T05:40:01;61.60;;;35.20;;
6033;SDS011;3045;43.226;27.858;2022-10-31T05:42:28;64.93;;;34.20;;
6033;SDS011;3045;43.226;27.858;2022-10-31T05:44:55;56.83;;;34.73;;
6033;SDS011;3045;43.226;27.858;2022-10-31T05:47:23;55.27;;;32.90;;
6033;SDS011;3045;43.226;27.858;2022-10-31T05:49:51;59.33;;;32.60;;
6033;SDS011;3045;43.226;27.858;2022-10-31T05:52:18;59.73;;;31.80;;
6033;SDS011;3045;43.226;27.858;2022-10-31T05:54:46;57.37;;;28.90;;
6033;SDS011;3045;43.226;27.858;2022-10-31T05:57:13;70.77;;;34.33;;
6033;SDS011;3045;43.226;27.858;2022-10-31T05:59:40;76.10;;;33.67;;
6033;SDS011;3045;43.226;27.858;2022-10-31T06:02:06;59.10;;;31.40;;
6033;SDS011;3045;43.226;27.858;2022-10-31T06:04:35;74.97;;;31.73;;
6033;SDS011;3045;43.226;27.858;2022-10-31T06:07:02;54.13;;;29.73;;
6033;SDS011;3045;43.226;27.858;2022-10-31T06:09:29;57.63;;;27.97;;
6033;SDS011;3045;43.226;27.858;2022-10-31T06:11:56;60.07;;;30.87;;
6033;SDS011;3045;43.226;27.858;2022-10-31T06:14:23;61.13;;;30.23;;
6033;SDS011;3045;43.226;27.858;2022-10-31T06:16:50;74.90;;;31.40;;
6033;SDS011;3045;43.226;27.858;2022-10-31T06:19:17;64.73;;;28.10;;
6033;SDS011;3045;43.226;27.858;2022-10-31T06:21:45;77.77;;;29.43;;
6033;SDS011;3045;43.226;27.858;2022-10-31T06:24:12;72.67;;;26.83;;
6033;SDS011;3045;43.226;27.858;2022-10-31T06:26:40;57.23;;;25.37;;
6033;SDS011;3045;43.226;27.858;2022-10-31T06:29:07;60.30;;;27.70;;
6033;SDS011;3045;43.226;27.858;2022-10-31T06:31:34;78.67;;;26.80;;
6033;SDS011;3045;43.226;27.858;2022-10-31T06:34:00;95.27;;;27.60;;
6033;SDS011;3045;43.226;27.858;2022-10-31T06:36:27;86.10;;;27.00;;
6033;SDS011;3045;43.226;27.858;2022-10-31T06:38:56;53.57;;;23.00;;
6033;SDS011;3045;43.226;27.858;2022-10-31T06:41:23;46.87;;;20.60;;
6033;SDS011;3045;43.226;27.858;2022-10-31T06:43:50;37.77;;;19.83;;
6033;SDS011;3045;43.226;27.858;2022-10-31T06:46:16;39.27;;;19.00;;
6033;SDS011;3045;43.226;27.858;2022-10-31T06:48:43;27.67;;;19.00;;
6033;SDS011;3045;43.226;27.858;2022-10-31T06:51:10;36.33;;;26.63;;
6033;SDS011;3045;43.226;27.858;2022-10-31T06:53:37;27.13;;;18.17;;
6033;SDS011;3045;43.226;27.858;2022-10-31T06:56:06;25.70;;;17.05;;
6033;SDS011;3045;43.226;27.858;2022-10-31T06:58:33;37.97;;;23.53;;
6033;SDS011;3045;43.226;27.858;2022-10-31T07:01:00;46.20;;;28.77;;
6033;SDS011;3045;43.226;27.858;2022-10-31T07:03:27;43.23;;;25.87;;
6033;SDS011;3045;43.226;27.858;2022-10-31T07:05:54;42.73;;;23.47;;
6033;SDS011;3045;43.226;27.858;2022-10-31T07:08:22;46.63;;;30.23;;
6033;SDS011;3045;43.226;27.858;2022-10-31T07:10:50;40.77;;;27.53;;
6033;SDS011;3045;43.226;27.858;2022-10-31T07:13:20;41.60;;;27.33;;
6033;SDS011;3045;43.226;27.858;2022-10-31T07:15:51;39.40;;;26.27;;
6033;SDS011;3045;43.226;27.858;2022-10-31T07:18:19;47.60;;;25.67;;
6033;SDS011;3045;43.226;27.858;2022-10-31T07:20:46;41.00;;;23.13;;
6033;SDS011;3045;43.226;27.858;2022-10-31T07:23:13;31.27;;;22.17;;
6033;SDS011;3045;43.226;27.858;2022-10-31T07:25:40;28.77;;;19.73;;
6033;SDS011;3045;43.226;27.858;2022-10-31T07:28:07;24.17;;;17.27;;
6033;SDS011;3045;43.226;27.858;2022-10-31T07:30:36;23.03;;;16.50;;
6033;SDS011;3045;43.226;27.858;2022-10-31T07:33:03;21.40;;;17.73;;
6033;SDS011;3045;43.226;27.858;2022-10-31T07:35:30;30.47;;;16.33;;
6033;SDS011;3045;43.226;27.858;2022-10-31T07:37:57;19.83;;;16.03;;
6033;SDS011;3045;43.226;27.858;2022-10-31T07:40:32;22.70;;;15.47;;
6033;SDS011;3045;43.226;27.858;2022-10-31T07:42:59;22.23;;;14.57;;
6033;SDS011;3045;43.226;27.858;2022-10-31T07:45:26;36.83;;;17.33;;
6033;SDS011;3045;43.226;27.858;2022-10-31T07:47:56;33.13;;;16.77;;
6033;SDS011;3045;43.226;27.858;2022-10-31T07:50:24;31.40;;;16.13;;
6033;SDS011;3045;43.226;27.858;2022-10-31T07:52:58;32.88;;;16.27;;
6033;SDS011;3045;43.226;27.858;2022-10-31T07:55:26;25.48;;;14.48;;
6033;SDS011;3045;43.226;27.858;2022-10-31T07:57:57;18.02;;;13.73;;
6033;SDS011;3045;43.226;27.858;2022-10-31T08:00:25;23.42;;;13.82;;
6033;SDS011;3045;43.226;27.858;2022-10-31T08:02:57;22.52;;;13.98;;
6033;SDS011;3045;43.226;27.858;2022-10-31T08:05:25;16.88;;;13.13;;
6033;SDS011;3045;43.226;27.858;2022-10-31T08:07:52;14.60;;;13.20;;
6033;SDS011;3045;43.226;27.858;2022-10-31T08:10:19;14.10;;;12.77;;
6033;SDS011;3045;43.226;27.858;2022-10-31T08:12:47;17.80;;;13.27;;
6033;SDS011;3045;43.226;27.858;2022-10-31T08:15:21;20.05;;;13.00;;
6033;SDS011;3045;43.226;27.858;2022-10-31T08:17:48;22.02;;;13.95;;
6033;SDS011;3045;43.226;27.858;2022-10-31T08:20:16;24.55;;;13.00;;
6033;SDS011;3045;43.226;27.858;2022-10-31T08:22:51;17.42;;;13.52;;
6033;SDS011;3045;43.226;27.858;2022-10-31T08:25:19;17.85;;;13.48;;
6033;SDS011;3045;43.226;27.858;2022-10-31T08:27:48;20.23;;;13.32;;
6033;SDS011;3045;43.226;27.858;2022-10-31T08:30:15;27.63;;;14.15;;
6033;SDS011;3045;43.226;27.858;2022-10-31T08:32:42;14.27;;;13.00;;
6033;SDS011;3045;43.226;27.858;2022-10-31T08:35:09;17.77;;;13.27;;
6033;SDS011;3045;43.226;27.858;2022-10-31T08:37:38;18.42;;;13.18;;
6033;SDS011;3045;43.226;27.858;2022-10-31T08:40:05;13.95;;;12.57;;
6033;SDS011;3045;43.226;27.858;2022-10-31T08:42:33;14.60;;;13.05;;
6033;SDS011;3045;43.226;27.858;2022-10-31T08:45:00;13.57;;;12.35;;
6033;SDS011;3045;43.226;27.858;2022-10-31T08:47:27;15.52;;;13.57;;
6033;SDS011;3045;43.226;27.858;2022-10-31T08:49:54;19.55;;;12.70;;
6033;SDS011;3045;43.226;27.858;2022-10-31T08:52:22;14.93;;;13.45;;
6033;SDS011;3045;43.226;27.858;2022-10-31T08:54:51;13.45;;;12.20;;
6033;SDS011;3045;43.226;27.858;2022-10-31T08:57:18;13.93;;;12.77;;
6033;SDS011;3045;43.226;27.858;2022-10-31T08:59:46;16.02;;;12.85;;
6033;SDS011;3045;43.226;27.858;2022-10-31T09:02:12;17.48;;;13.45;;
6033;SDS011;3045;43.226;27.858;2022-10-31T09:04:39;19.20;;;12.65;;
6033;SDS011;3045;43.226;27.858;2022-10-31T09:07:06;17.13;;;11.88;;
6033;SDS011;3045;43.226;27.858;2022-10-31T09:09:33;17.15;;;11.95;;
6033;SDS011;3045;43.226;27.858;2022-10-31T09:12:02;19.25;;;13.18;;
6033;SDS011;3045;43.226;27.858;2022-10-31T09:14:29;21.27;;;12.25;;
6033;SDS011;3045;43.226;27.858;2022-10-31T09:16:56;21.23;;;12.90;;
6033;SDS011;3045;43.226;27.858;2022-10-31T09:19:23;15.50;;;12.25;;
6033;SDS011;3045;43.226;27.858;2022-10-31T09:21:52;13.15;;;11.82;;
6033;SDS011;3045;43.226;27.858;2022-10-31T09:24:21;13.52;;;12.43;;
6033;SDS011;3045;43.226;27.858;2022-10-31T09:26:50;20.08;;;17.88;;
6033;SDS011;3045;43.226;27.858;2022-10-31T09:29:18;20.38;;;17.30;;
6033;SDS011;3045;43.226;27.858;2022-10-31T09:31:45;14.35;;;12.98;;
6033;SDS011;3045;43.226;27.858;2022-10-31T09:34:12;13.30;;;12.07;;
6033;SDS011;3045;43.226;27.858;2022-10-31T09:36:39;13.82;;;12.45;;
6033;SDS011;3045;43.226;27.858;2022-10-31T09:39:06;16.05;;;12.13;;
6033;SDS011;3045;43.226;27.858;2022-10-31T09:41:39;12.93;;;11.90;;
6033;SDS011;3045;43.226;27.858;2022-10-31T09:44:20;18.75;;;12.43;;
6033;SDS011;3045;43.226;27.858;2022-10-31T09:46:54;15.23;;;12.05;;
6033;SDS011;3045;43.226;27.858;2022-10-31T09:49:34;14.73;;;11.02;;
6033;SDS011;3045;43.226;27.858;2022-10-31T09:52:09;13.40;;;12.02;;
6033;SDS011;3045;43.226;27.858;2022-10-31T09:54:43;12.85;;;11.20;;
6033;SDS011;3045;43.226;27.858;2022-10-31T09:57:14;13.98;;;10.27;;
6033;SDS011;3045;43.226;27.858;2022-10-31T09:59:46;12.20;;;10.48;;
6033;SDS011;3045;43.226;27.858;2022-10-31T10:02:16;19.42;;;10.43;;
6033;SDS011;3045;43.226;27.858;2022-10-31T10:04:54;12.38;;;11.13;;
6033;SDS011;3045;43.226;27.858;2022-10-31T10:07:29;12.25;;;10.02;;
6033;SDS011;3045;43.226;27.858;2022-10-31T10:10:11;11.82;;;10.63;;
6033;SDS011;3045;43.226;27.858;2022-10-31T10:12:45;14.27;;;10.40;;
6033;SDS011;3045;43.226;27.858;2022-10-31T10:15:29;10.23;;;9.52;;
6033;SDS011;3045;43.226;27.858;2022-10-31T10:18:06;14.40;;;9.52;;
6033;SDS011;3045;43.226;27.858;2022-10-31T10:20:43;10.30;;;9.27;;
6033;SDS011;3045;43.226;27.858;2022-10-31T10:23:23;10.40;;;9.40;;
6033;SDS011;3045;43.226;27.858;2022-10-31T10:26:15;10.43;;;8.65;;
6033;SDS011;3045;43.226;27.858;2022-10-31T10:28:44;9.95;;;9.35;;
6033;SDS011;3045;43.226;27.858;2022-10-31T10:31:16;9.80;;;8.52;;
6033;SDS011;3045;43.226;27.858;2022-10-31T10:33:51;9.23;;;8.20;;
6033;SDS011;3045;43.226;27.858;2022-10-31T10:36:27;10.15;;;8.50;;
6033;SDS011;3045;43.226;27.858;2022-10-31T10:38:58;12.57;;;8.93;;
6033;SDS011;3045;43.226;27.858;2022-10-31T10:41:29;12.32;;;8.77;;
6033;SDS011;3045;43.226;27.858;2022-10-31T10:43:58;9.23;;;8.63;;
6033;SDS011;3045;43.226;27.858;2022-10-31T10:46:28;9.90;;;8.63;;
6033;SDS011;3045;43.226;27.858;2022-10-31T10:49:22;12.00;;;9.55;;
6033;SDS011;3045;43.226;27.858;2022-10-31T10:51:58;12.68;;;9.05;;
6033;SDS011;3045;43.226;27.858;2022-10-31T10:54:37;14.57;;;9.35;;
6033;SDS011;3045;43.226;27.858;2022-10-31T10:57:20;17.15;;;9.70;;
6033;SDS011;3045;43.226;27.858;2022-10-31T10:59:54;11.10;;;9.27;;
6033;SDS011;3045;43.226;27.858;2022-10-31T11:02:23;13.98;;;8.40;;
6033;SDS011;3045;43.226;27.858;2022-10-31T11:04:52;9.10;;;8.30;;
6033;SDS011;3045;43.226;27.858;2022-10-31T11:07:21;9.25;;;8.32;;
6033;SDS011;3045;43.226;27.858;2022-10-31T11:09:48;13.27;;;9.48;;
6033;SDS011;3045;43.226;27.858;2022-10-31T11:12:19;9.73;;;8.80;;
6033;SDS011;3045;43.226;27.858;2022-10-31T11:14:49;10.30;;;9.23;;
6033;SDS011;3045;43.226;27.858;2022-10-31T11:17:20;11.13;;;9.68;;
6033;SDS011;3045;43.226;27.858;2022-10-31T11:20:06;12.05;;;9.10;;
6033;SDS011;3045;43.226;27.858;2022-10-31T11:23:00;11.63;;;9.88;;
6033;SDS011;3045;43.226;27.858;2022-10-31T11:25:29;13.20;;;9.68;;
6033;SDS011;3045;43.226;27.858;2022-10-31T11:27:59;9.82;;;8.90;;
6033;SDS011;3045;43.226;27.858;2022-10-31T11:30:27;15.95;;;8.88;;
6033;SDS011;3045;43.226;27.858;2022-10-31T11:32:57;17.05;;;8.90;;
6033;SDS011;3045;43.226;27.858;2022-10-31T11:35:24;8.77;;;7.88;;
6033;SDS011;3045;43.226;27.858;2022-10-31T11:37:52;12.80;;;8.23;;
6033;SDS011;3045;43.226;27.858;2022-10-31T11:40:21;9.25;;;8.35;;
6033;SDS011;3045;43.226;27.858;2022-10-31T11:42:50;8.70;;;7.70;;
6033;SDS011;3045;43.226;27.858;2022-10-31T11:45:27;13.32;;;7.78;;
6033;SDS011;3045;43.226;27.858;2022-10-31T11:47:59;9.38;;;8.57;;
6033;SDS011;3045;43.226;27.858;2022-10-31T11:50:29;9.57;;;8.63;;
6033;SDS011;3045;43.226;27.858;2022-10-31T11:53:01;13.50;;;9.18;;
6033;SDS011;3045;43.226;27.858;2022-10-31T11:55:30;10.57;;;8.70;;
6033;SDS011;3045;43.226;27.858;2022-10-31T11:58:00;11.15;;;8.68;;
6033;SDS011;3045;43.226;27.858;2022-10-31T12:00:27;8.50;;;7.75;;
6033;SDS011;3045;43.226;27.858;2022-10-31T12:03:12;10.50;;;9.25;;
6033;SDS011;3045;43.226;27.858;2022-10-31T12:05:47;15.02;;;8.32;;
6033;SDS011;3045;43.226;27.858;2022-10-31T12:08:20;8.70;;;7.85;;
6033;SDS011;3045;43.226;27.858;2022-10-31T12:10:50;9.75;;;8.75;;
6033;SDS011;3045;43.226;27.858;2022-10-31T12:13:37;11.88;;;7.90;;
6033;SDS011;3045;43.226;27.858;2022-10-31T12:16:12;9.57;;;8.65;;
6033;SDS011;3045;43.226;27.858;2022-10-31T12:18:51;11.93;;;8.60;;
6033;SDS011;3045;43.226;27.858;2022-10-31T12:21:27;8.63;;;7.57;;
6033;SDS011;3045;43.226;27.858;2022-10-31T12:24:13;8.57;;;7.95;;
6033;SDS011;3045;43.226;27.858;2022-10-31T12:26:54;8.45;;;8.05;;
6033;SDS011;3045;43.226;27.858;2022-10-31T12:29:36;9.00;;;8.10;;
6033;SDS011;3045;43.226;27.858;2022-10-31T12:32:20;13.50;;;9.18;;
6033;SDS011;3045;43.226;27.858;2022-10-31T12:35:08;10.68;;;8.73;;
6033;SDS011;3045;43.226;27.858;2022-10-31T12:37:54;12.35;;;8.73;;
6033;SDS011;3045;43.226;27.858;2022-10-31T12:43:25;14.07;;;8.18;;
6033;SDS011;3045;43.226;27.858;2022-10-31T12:46:02;14.25;;;8.30;;
6033;SDS011;3045;43.226;27.858;2022-10-31T12:48:47;14.48;;;8.18;;
6033;SDS011;3045;43.226;27.858;2022-10-31T12:51:32;10.82;;;8.50;;
6033;SDS011;3045;43.226;27.858;2022-10-31T12:54:19;9.77;;;7.47;;
6033;SDS011;3045;43.226;27.858;2022-10-31T12:57:03;8.63;;;7.88;;
6033;SDS011;3045;43.226;27.858;2022-10-31T12:59:39;10.27;;;7.95;;
6033;SDS011;3045;43.226;27.858;2022-10-31T13:02:12;11.57;;;8.30;;
6033;SDS011;3045;43.226;27.858;2022-10-31T13:04:47;8.27;;;7.60;;
6033;SDS011;3045;43.226;27.858;2022-10-31T13:07:20;8.82;;;8.00;;
6033;SDS011;3045;43.226;27.858;2022-10-31T13:09:53;10.98;;;9.13;;
6033;SDS011;3045;43.226;27.858;2022-10-31T13:12:26;8.68;;;7.90;;
6033;SDS011;3045;43.226;27.858;2022-10-31T13:14:56;8.70;;;7.72;;
6033;SDS011;3045;43.226;27.858;2022-10-31T13:17:27;11.55;;;7.88;;
6033;SDS011;3045;43.226;27.858;2022-10-31T13:20:02;17.83;;;8.38;;
6033;SDS011;3045;43.226;27.858;2022-10-31T13:22:55;8.68;;;7.18;;
6033;SDS011;3045;43.226;27.858;2022-10-31T13:25:30;11.00;;;8.10;;
6033;SDS011;3045;43.226;27.858;2022-10-31T13:28:03;13.82;;;7.55;;
6033;SDS011;3045;43.226;27.858;2022-10-31T13:30:40;8.00;;;7.28;;
6033;SDS011;3045;43.226;27.858;2022-10-31T13:33:12;10.50;;;7.30;;
6033;SDS011;3045;43.226;27.858;2022-10-31T13:35:46;7.78;;;7.28;;
6033;SDS011;3045;43.226;27.858;2022-10-31T13:38:21;7.88;;;7.30;;
6033;SDS011;3045;43.226;27.858;2022-10-31T13:40:56;9.75;;;7.75;;
6033;SDS011;3045;43.226;27.858;2022-10-31T13:43:28;10.27;;;7.40;;
6033;SDS011;3045;43.226;27.858;2022-10-31T13:46:01;8.13;;;7.43;;
6033;SDS011;3045;43.226;27.858;2022-10-31T13:48:39;7.97;;;7.30;;
6033;SDS011;3045;43.226;27.858;2022-10-31T13:51:09;10.52;;;8.35;;
6033;SDS011;3045;43.226;27.858;2022-10-31T13:53:39;9.75;;;8.02;;
6033;SDS011;3045;43.226;27.858;2022-10-31T13:56:14;8.80;;;7.85;;
6033;SDS011;3045;43.226;27.858;2022-10-31T13:58:54;10.70;;;8.05;;
6033;SDS011;3045;43.226;27.858;2022-10-31T14:01:25;9.15;;;8.18;;
6033;SDS011;3045;43.226;27.858;2022-10-31T14:03:57;10.25;;;7.65;;
6033;SDS011;3045;43.226;27.858;2022-10-31T14:06:41;8.02;;;7.43;;
6033;SDS011;3045;43.226;27.858;2022-10-31T14:09:20;8.57;;;7.68;;
6033;SDS011;3045;43.226;27.858;2022-10-31T14:11:50;8.98;;;7.35;;
6033;SDS011;3045;43.226;27.858;2022-10-31T14:14:18;9.80;;;7.45;;
6033;SDS011;3045;43.226;27.858;2022-10-31T14:16:51;8.17;;;7.50;;
6033;SDS011;3045;43.226;27.858;2022-10-31T14:19:22;11.75;;;8.10;;
6033;SDS011;3045;43.226;27.858;2022-10-31T14:21:49;8.18;;;7.30;;
6033;SDS011;3045;43.226;27.858;2022-10-31T14:24:31;8.65;;;7.82;;
6033;SDS011;3045;43.226;27.858;2022-10-31T14:27:02;13.50;;;7.90;;
6033;SDS011;3045;43.226;27.858;2022-10-31T14:29:32;10.80;;;7.40;;
6033;SDS011;3045;43.226;27.858;2022-10-31T14:32:04;15.52;;;7.55;;
6033;SDS011;3045;43.226;27.858;2022-10-31T14:34:42;18.30;;;9.00;;
6033;SDS011;3045;43.226;27.858;2022-10-31T14:43:17;18.35;;;8.90;;
6033;SDS011;3045;43.226;27.858;2022-10-31T14:45:56;20.83;;;9.00;;
6033;SDS011;3045;43.226;27.858;2022-10-31T14:51:19;17.17;;;9.18;;
6033;SDS011;3045;43.226;27.858;2022-10-31T14:53:49;10.27;;;8.48;;
6033;SDS011;3045;43.226;27.858;2022-10-31T14:56:21;15.25;;;8.88;;
6033;SDS011;3045;43.226;27.858;2022-10-31T14:58:52;12.10;;;8.60;;
6033;SDS011;3045;43.226;27.858;2022-10-31T15:01:21;12.35;;;8.73;;
6033;SDS011;3045;43.226;27.858;2022-10-31T15:03:51;15.43;;;9.23;;
6033;SDS011;3045;43.226;27.858;2022-10-31T15:06:20;11.13;;;9.20;;
6033;SDS011;3045;43.226;27.858;2022-10-31T15:08:49;16.67;;;8.90;;
6033;SDS011;3045;43.226;27.858;2022-10-31T15:11:18;17.42;;;8.55;;
6033;SDS011;3045;43.226;27.858;2022-10-31T15:13:48;15.67;;;9.37;;